Latest Weather Observations for Scherger

IDQ60801

Issued at 5:32 pm EST Tuesday 17 October 2017 (issued every 30 minutes, with the page automatically refreshed every 10 minutes)

About weather observations | Map of weather stations | Latest weather observations for QLD | Other Formats
Station Details ID: 027075 Name: SCHERGER RAAF Lat: -12.62 Lon: 142.09 Height: 39.34 m
Data from the previous 72 hours. | See also: Recent months at Scherger
Date/Time
EST
Temp
°C
App
Temp
°C
Dew
Point
°C
Rel
Hum
%
Delta-T
°C
Wind Press
QNH
hPa
Press
MSL
hPa
Rain since
9am
mm
Dir  Spd
km/h
Gust
km/h
Spd
kts
Gust
kts
17/05:30pm 29.9 31.0 20.5 57 6.2 WSW 15 24 8 13 1005.9 1005.6 0.0
17/05:00pm 30.8 31.2 19.8 52 7.3 W 17 30 9 16 1005.6 1005.3 0.0
17/04:30pm 32.0 33.7 20.9 52 7.4 WSW 13 24 7 13 1005.2 1004.9 0.0
17/04:00pm 32.1 34.4 20.7 51 7.6 SSW 9 17 5 9 1005.2 1004.9 0.0
17/03:30pm 32.5 34.6 20.1 48 8.2 SW 9 15 5 8 1005.4 1005.1 0.0
17/03:00pm 32.2 34.6 20.1 48 8.0 W 7 15 4 8 1005.7 1005.4 0.0
17/02:30pm 32.0 34.4 20.9 52 7.4 S 9 13 5 7 1006.0 1005.7 0.0
17/02:00pm 30.7 33.0 20.6 54 6.7 SSW 9 13 5 7 1006.5 1006.2 0.0
17/01:30pm 31.1 34.4 20.7 54 6.9 NE 4 9 2 5 1007.1 1006.8 0.0
17/01:00pm 30.8 34.2 21.0 56 6.6 SSE 4 9 2 5 1007.6 1007.3 0.0
17/12:30pm 30.5 34.5 22.1 61 5.7 N 4 11 2 6 1008.4 1008.1 0.0
17/12:00pm 30.1 34.2 22.3 63 5.3 ENE 4 9 2 5 1008.9 1008.6 0.0
17/11:30am 29.1 32.7 22.1 66 4.7 NNE 6 11 3 6 1009.4 1009.1 0.0
17/11:00am 29.1 32.6 21.8 64 4.9 NNE 6 13 3 7 1009.8 1009.5 0.0
17/10:30am 28.8 32.7 22.5 68 4.3 SE 6 9 3 5 1010.1 1009.8 0.0
17/10:00am 28.5 32.0 21.8 67 4.5 ENE 6 13 3 7 1010.5 1010.2 0.0
17/09:30am 28.6 32.7 22.3 68 4.3 N 4 11 2 6 1010.8 1010.5 0.0
17/09:00am 27.1 30.0 21.8 73 3.6 SSE 9 13 5 7 1010.9 1010.6 35.8
17/08:30am 26.9 29.9 21.9 74 3.4 E 9 15 5 8 1010.5 1010.2 35.8
17/08:00am 25.9 29.6 22.6 82 2.2 ESE 7 13 4 7 1010.1 1009.8 35.8
17/07:30am 24.8 29.2 23.4 92 1.0 SE 6 9 3 5 1009.5 1009.2 35.8
17/07:00am 23.4 28.2 22.2 93 0.8 CALM 0 7 0 4 1008.9 1008.6 35.8
17/06:30am 23.3 28.1 22.1 93 0.8 CALM 0 0 0 0 1008.6 1008.3 35.8
17/06:00am 23.1 27.9 22.1 94 0.7 CALM 0 0 0 0 1008.4 1008.1 35.8
17/05:30am 22.7 27.2 21.5 93 0.8 CALM 0 0 0 0 1008.1 1007.8 35.8
17/05:00am 22.7 27.2 21.5 93 0.8 CALM 0 0 0 0 1007.6 1007.3 35.8
17/04:30am 23.0 27.6 21.8 93 0.8 CALM 0 0 0 0 1007.4 1007.1 35.8
17/04:00am 22.8 27.3 21.6 93 0.8 CALM 0 0 0 0 1007.2 1006.9 35.8
17/03:30am 22.8 27.3 21.6 93 0.8 CALM 0 0 0 0 1007.1 1006.8 35.8
17/03:00am 22.7 27.2 21.5 93 0.8 CALM 0 0 0 0 1006.9 1006.6 35.8
17/02:30am 22.7 27.1 21.3 92 0.9 CALM 0 0 0 0 1007.2 1006.9 35.8
17/02:00am 22.9 27.3 21.4 91 1.0 CALM 0 0 0 0 1007.8 1007.5 35.8
17/01:30am 23.0 27.5 21.6 92 0.9 CALM 0 0 0 0 1008.3 1008.0 35.8
17/01:00am 23.1 26.9 21.7 92 0.9 S 4 13 2 7 1008.6 1008.3 35.8
17/12:30am 22.9 27.3 21.4 91 1.0 CALM 0 0 0 0 1009.2 1008.9 35.8
17/12:00am 22.8 27.2 21.4 92 0.9 CALM 0 6 0 3 1009.1 1008.8 35.8
 
Date/Time
EST
Temp
°C
App
Temp
°C
Dew
Point
°C
Rel
Hum
%
Delta-T
°C
Wind Press
QNH
hPa
Press
MSL
hPa
Rain since
9am
mm
Dir  Spd
km/h
Gust
km/h
Spd
kts
Gust
kts
16/11:30pm 22.4 26.6 20.9 91 1.0 CALM 0 0 0 0 1009.4 1009.1 35.8
16/11:00pm 22.5 26.6 20.8 90 1.1 CALM 0 0 0 0 1009.5 1009.2 35.8
16/10:30pm 22.5 26.4 20.4 88 1.4 CALM 0 0 0 0 1009.5 1009.2 35.8
16/10:00pm 23.0 27.0 20.5 86 1.6 CALM 0 0 0 0 1009.6 1009.3 35.8
16/09:30pm 23.5 27.4 20.4 83 2.0 CALM 0 0 0 0 1009.6 1009.3 35.8
16/09:00pm 23.5 26.3 20.4 83 2.0 ENE 6 9 3 5 1009.6 1009.3 35.8
16/08:30pm 23.4 25.4 20.0 81 2.2 NNE 9 13 5 7 1009.0 1008.7 35.8
16/08:00pm 23.8 26.6 20.5 82 2.2 NNE 6 13 3 7 1008.5 1008.2 35.8
16/07:30pm 24.1 26.8 21.4 85 1.8 NNE 9 13 5 7 1007.8 1007.5 35.8
16/07:00pm 24.4 27.6 21.7 85 1.8 NE 7 13 4 7 1007.6 1007.3 35.8
16/06:30pm 24.7 28.2 22.2 86 1.7 NE 7 11 4 6 1007.3 1007.0 35.8
16/06:00pm 24.8 27.7 21.7 83 2.1 NE 9 13 5 7 1007.0 1006.7 35.8
16/05:30pm 25.7 28.7 20.9 75 3.2 NNE 6 9 3 5 1006.5 1006.2 35.8
16/05:00pm 26.2 29.7 21.8 77 2.9 ENE 6 13 3 7 1006.2 1005.9 35.8
16/04:30pm 25.1 28.5 22.0 83 2.1 ENE 7 13 4 7 1005.7 1005.4 35.8
16/04:00pm 24.2 28.4 23.2 94 0.7 NE 6 11 3 6 1005.5 1005.2 35.8
16/03:30pm 23.2 24.7 22.0 93 0.8 S 17 26 9 14 1006.3 1006.0 31.6
16/03:00pm 24.1 25.5 22.5 91 1.1 SE 19 26 10 14 1006.1 1005.8 17.6
16/02:45pm 27.2 28.4 21.5 71 3.8 SSE 17 28 9 15 1005.5 - 1.6
16/02:44pm 27.2 28.4 21.5 71 3.8 SSE 17 28 9 15 1005.5 1005.2 1.6
16/02:30pm 32.3 33.0 18.8 44 8.8 ESE 13 24 7 13 1004.7 1004.4 0.0
16/02:00pm 35.5 36.3 17.2 33 11.8 NNE 9 17 5 9 1005.1 1004.8 0.0
16/01:30pm 35.0 36.3 17.2 34 11.4 ESE 6 15 3 8 1006.0 1005.7 0.0
16/01:00pm 35.7 37.5 19.6 39 10.7 ENE 9 19 5 10 1006.9 1006.6 0.0
16/12:30pm 33.6 35.7 18.9 41 9.6 NE 6 13 3 7 1007.4 1007.1 0.0
16/12:00pm 33.6 34.7 18.9 41 9.7 ESE 11 17 6 9 1008.0 1007.7 0.0
16/11:30am 33.0 34.7 20.2 47 8.5 ENE 11 17 6 9 1008.5 1008.2 0.0
16/11:00am 32.6 34.3 20.2 48 8.3 E 11 20 6 11 1009.0 1008.7 0.0
16/10:30am 31.9 33.2 20.2 50 7.8 ESE 13 22 7 12 1009.3 1009.0 0.0
16/10:00am 30.8 32.8 20.7 55 6.7 E 11 19 6 10 1009.5 1009.2 0.0
16/09:30am 29.5 31.2 20.9 60 5.7 NE 13 22 7 12 1009.5 1009.2 0.0
16/09:00am 28.6 30.3 20.9 63 5.1 E 13 20 7 11 1009.7 1009.4 0.0
16/08:30am 27.8 30.2 20.9 66 4.6 ESE 9 17 5 9 1009.8 1009.5 0.0
16/08:00am 27.3 29.2 21.3 69 4.0 E 13 22 7 12 1009.3 1009.0 0.0
16/07:30am 26.5 29.2 21.3 73 3.5 ESE 9 19 5 10 1009.4 1009.1 0.0
16/07:00am 25.3 28.4 21.4 79 2.6 ESE 7 13 4 7 1008.9 1008.6 0.0
16/06:30am 24.5 27.6 21.0 81 2.3 E 6 11 3 6 1008.5 1008.2 0.0
16/06:00am 24.4 27.3 20.7 80 2.4 ENE 6 9 3 5 1008.1 1007.8 0.0
16/05:30am 24.8 28.1 20.7 78 2.7 E 4 9 2 5 1008.3 1008.0 0.0
16/05:00am 25.2 28.0 20.9 77 2.8 ESE 7 11 4 6 1008.2 1007.9 0.0
16/04:30am 25.4 28.9 21.1 77 2.8 ESE 4 9 2 5 1007.8 1007.5 0.0
16/04:00am 25.4 28.5 21.1 77 2.8 ESE 6 11 3 6 1007.5 1007.2 0.0
16/03:30am 25.4 28.1 20.6 75 3.1 E 7 13 4 7 1007.3 1007.0 0.0
16/03:00am 25.5 28.6 20.3 73 3.4 ESE 4 9 2 5 1007.5 1007.2 0.0
16/02:30am 25.5 28.1 20.1 72 3.5 ENE 6 9 3 5 1007.5 1007.2 0.0
16/02:00am 25.9 29.5 19.8 69 4.0 CALM 0 7 0 4 1007.7 1007.4 0.0
16/01:30am 26.4 28.7 19.8 67 4.3 ENE 7 11 4 6 1008.1 1007.8 0.0
16/01:00am 26.5 29.0 20.3 68 4.1 NE 7 11 4 6 1008.2 1007.9 0.0
16/12:30am 26.8 30.0 20.6 69 4.1 NE 4 9 2 5 1008.4 1008.1 0.0
16/12:00am 26.8 30.8 21.3 72 3.7 NE 2 9 1 5 1008.3 1008.0 0.0
 
Date/Time
EST
Temp
°C
App
Temp
°C
Dew
Point
°C
Rel
Hum
%
Delta-T
°C
Wind Press
QNH
hPa
Press
MSL
hPa
Rain since
9am
mm
Dir  Spd
km/h
Gust
km/h
Spd
kts
Gust
kts
15/11:30pm 26.6 31.2 21.8 75 3.2 CALM 0 0 0 0 1008.1 1007.8 0.0
15/11:00pm 26.3 30.9 21.7 76 3.1 CALM 0 0 0 0 1008.0 1007.7 0.0
15/10:30pm 26.2 30.6 21.4 75 3.2 CALM 0 0 0 0 1007.8 1007.5 0.0
15/10:00pm 26.6 31.1 21.6 74 3.3 CALM 0 0 0 0 1007.7 1007.4 0.0
15/09:30pm 26.3 30.8 21.5 75 3.2 CALM 0 0 0 0 1007.7 1007.4 0.0
15/09:00pm 26.1 30.3 20.9 73 3.4 CALM 0 0 0 0 1007.5 1007.2 0.0
15/08:30pm 26.5 30.6 20.8 71 3.8 CALM 0 0 0 0 1007.1 1006.8 0.0
15/08:00pm 27.6 30.8 21.2 68 4.3 WSW 6 9 3 5 1006.9 1006.6 0.0
15/07:30pm 27.7 30.9 21.3 68 4.3 NW 6 9 3 5 1006.3 1006.0 0.0
15/07:00pm 28.0 30.5 21.1 66 4.6 W 9 13 5 7 1005.7 1005.4 0.0
15/06:30pm 28.3 30.5 21.1 65 4.8 W 11 17 6 9 1005.2 1004.9 0.0
15/06:00pm 28.9 31.3 20.9 62 5.3 W 9 19 5 10 1004.8 1004.5 0.0
15/05:30pm 29.4 31.0 21.4 62 5.4 WSW 15 22 8 12 1004.7 1004.4 0.0
15/05:00pm 30.1 31.4 20.9 57 6.2 WSW 15 30 8 16 1004.5 1004.2 0.0
15/04:30pm 31.5 33.2 21.7 56 6.6 WNW 15 26 8 14 1003.9 1003.6 0.0
15/04:00pm 33.7 36.1 20.1 44 9.1 SSE 7 20 4 11 1003.6 1003.3 0.0
15/03:30pm 36.0 37.5 18.1 34 11.7 E 7 19 4 10 1003.4 1003.1 0.0
15/03:00pm 35.6 36.4 17.3 33 11.8 NE 9 19 5 10 1003.7 1003.4 0.0
15/02:30pm 35.4 35.7 17.1 33 11.8 E 11 20 6 11 1004.1 1003.8 0.0
15/02:00pm 35.2 35.7 17.4 34 11.5 ESE 11 24 6 13 1004.5 1004.2 0.0
15/01:30pm 34.9 36.6 18.0 36 11.0 SSE 6 15 3 8 1005.2 1004.9 0.0
15/01:00pm 34.9 34.9 18.0 36 11.0 SE 15 24 8 13 1005.9 1005.6 0.0
15/12:30pm 34.7 35.4 17.9 37 10.9 E 11 26 6 14 1006.4 1006.1 0.0
15/12:00pm 34.7 35.7 18.7 38 10.5 E 11 20 6 11 1007.2 1006.9 0.0
15/11:30am 32.4 33.9 18.9 44 8.8 ENE 9 20 5 11 1007.5 1007.2 0.0
15/11:00am 31.9 33.5 19.2 47 8.3 ENE 9 19 5 10 1008.0 1007.7 0.0
15/10:30am 31.3 31.7 19.0 48 8.0 E 15 24 8 13 1008.7 1008.4 0.0
15/10:00am 30.6 31.8 19.0 50 7.6 ENE 11 20 6 11 1009.0 1008.7 0.0
15/09:30am 29.9 31.8 20.5 57 6.2 E 11 17 6 9 1009.3 1009.0 0.0
15/09:00am 28.7 29.8 19.6 58 5.9 E 13 26 7 14 1009.6 1009.3 0.0
15/08:30am 27.9 29.5 20.7 65 4.8 ENE 13 19 7 10 1009.6 1009.3 0.0
15/08:00am 26.5 28.8 20.6 70 3.9 E 9 17 5 9 1009.7 1009.4 0.0
15/07:30am 25.2 28.0 20.5 75 3.1 ESE 6 11 3 6 1009.3 1009.0 0.0
15/07:00am 23.7 27.7 20.6 83 2.0 CALM 0 6 0 3 1008.8 1008.5 0.0
15/06:30am 22.1 25.4 20.0 88 1.4 E 2 9 1 5 1008.4 1008.1 0.0
15/06:00am 21.8 25.3 19.5 87 1.5 CALM 0 0 0 0 1008.1 1007.8 0.0
15/05:30am 22.1 25.6 19.6 86 1.6 CALM 0 0 0 0 1008.0 1007.7 0.0
15/05:00am 21.9 25.3 19.3 85 1.7 CALM 0 0 0 0 1007.8 1007.5 0.0
15/04:30am 22.2 25.7 19.6 85 1.7 CALM 0 0 0 0 1007.6 1007.3 0.0
15/04:00am 22.0 25.3 19.2 84 1.8 CALM 0 0 0 0 1007.4 1007.1 0.0
15/03:30am 22.3 25.6 19.1 82 2.0 CALM 0 0 0 0 1007.4 1007.1 0.0
15/03:00am 22.4 25.7 19.0 81 2.2 CALM 0 0 0 0 1007.5 1007.2 0.0
15/02:30am 22.7 25.9 18.9 79 2.4 CALM 0 0 0 0 1007.6 1007.3 0.0
15/02:00am 23.2 26.3 18.7 76 2.9 CALM 0 0 0 0 1007.9 1007.6 0.0
15/01:30am 24.0 27.3 19.1 74 3.1 CALM 0 0 0 0 1008.0 1007.7 0.0
15/01:00am 24.4 26.9 19.0 72 3.5 ESE 4 9 2 5 1008.4 1008.1 0.0
15/12:30am 24.9 27.1 19.1 70 3.7 ENE 6 11 3 6 1008.8 1008.5 0.0
15/12:00am 25.2 27.1 18.9 68 4.0 ENE 7 9 4 5 1008.8 1008.5 0.0
 
Date/Time
EST
Temp
°C
App
Temp
°C
Dew
Point
°C
Rel
Hum
%
Delta-T
°C
Wind Press
QNH
hPa
Press
MSL
hPa
Rain since
9am
mm
Dir  Spd
km/h
Gust
km/h
Spd
kts
Gust
kts
14/11:30pm 25.2 27.4 19.1 69 3.9 ENE 6 9 3 5 1009.0 1008.7 0.0
14/11:00pm 25.6 28.7 19.5 69 3.9 E 2 7 1 4 1009.2 1008.9 0.0
14/10:30pm 26.1 30.3 20.9 73 3.4 CALM 0 0 0 0 1009.2 1008.9 0.0
14/10:00pm 26.7 30.4 21.5 73 3.5 E 4 11 2 6 1009.2 1008.9 0.0
14/09:30pm 26.9 31.9 22.5 77 3.0 CALM 0 0 0 0 1008.8 1008.5 0.0
14/09:00pm 26.7 31.7 22.5 78 2.8 CALM 0 0 0 0 1008.8 1008.5 0.0
14/08:30pm 26.7 31.6 22.3 77 3.0 CALM 0 0 0 0 1008.5 1008.2 0.0
14/08:00pm 27.3 31.9 22.5 75 3.3 WSW 2 9 1 5 1008.1 1007.8 0.0
14/07:30pm 27.5 32.0 22.2 73 3.6 WSW 2 7 1 4 1007.5 1007.2 0.0
14/07:00pm 27.7 30.8 22.2 72 3.7 WSW 9 15 5 8 1007.1 1006.8 0.0
14/06:30pm 28.3 31.9 22.3 70 4.1 W 7 13 4 7 1006.4 1006.1 0.0
14/06:00pm 29.2 31.4 21.9 64 4.9 WSW 13 20 7 11 1006.0 1005.7 0.0

Other Formats:

Comma delimited format used in spreadsheet applications
http://www.bom.gov.au/fwo/IDQ60801/IDQ60801.94171.axf

JavaScript Object Notation format (JSON) in row-major order
http://www.bom.gov.au/fwo/IDQ60801/IDQ60801.94171.json